Time;durP1;ratioP1;P1;durP2;ratioP2;P2;SDS_P1;SDS_P2;PMS_P1;PMS_P2;Temp;Humidity;BMP_temperature;BMP_pressure;BME280_temperature;BME280_humidity;BME280_pressure;Samples;Min_cycle;Max_cycle;Signal;HPM_P1;HPM_P2
2023/08/18 00:00:33;;;;;;;3.85;3.55;;;;;;;22.77;78.58;95787.28;6300997;22;20178;-91
2023/08/18 00:02:59;;;;;;;5.05;3.70;;;;;;;22.73;78.77;95794.03;6273398;22;20259;-92
2023/08/18 00:05:26;;;;;;;3.83;3.17;;;;;;;22.69;79.48;95792.97;6273003;22;20200;-91
2023/08/18 00:08:06;;;;;;;5.22;3.60;;;;;;;22.61;79.81;95785.50;6273499;22;20255;-91
2023/08/18 00:11:10;;;;;;;4.03;3.47;;;;;;;22.54;79.09;95774.41;6273839;22;20149;-91
2023/08/18 00:16:47;;;;;;;3.50;3.20;;;;;;;22.45;78.82;95766.19;6148219;23;20178;-92
2023/08/18 00:19:15;;;;;;;3.55;3.15;;;;;;;22.36;77.59;95739.59;6254450;22;20174;-90
2023/08/18 00:22:03;;;;;;;4.50;3.20;;;;;;;22.31;78.38;95736.94;6275073;22;20172;-91
2023/08/18 00:24:52;;;;;;;4.03;3.15;;;;;;;22.22;77.81;95733.16;6274095;22;20271;-91
2023/08/18 00:27:20;;;;;;;3.58;2.88;;;;;;;22.24;77.71;95740.78;6273480;22;20188;-91
2023/08/18 00:29:48;;;;;;;3.00;2.50;;;;;;;22.28;77.08;95724.31;6275329;22;20172;-92
2023/08/18 00:32:15;;;;;;;2.95;2.65;;;;;;;22.40;77.37;95732.81;6273817;22;20187;-92
2023/08/18 00:34:42;;;;;;;3.13;2.67;;;;;;;22.50;76.98;95713.78;6272930;22;20192;-91
2023/08/18 00:37:17;;;;;;;3.42;2.72;;;;;;;22.42;75.97;95695.03;6273950;22;20176;-91
2023/08/18 00:39:46;;;;;;;2.70;2.50;;;;;;;22.39;76.37;95691.88;6274126;22;20144;-91
2023/08/18 00:42:14;;;;;;;4.25;2.70;;;;;;;22.34;76.40;95696.28;6274096;22;20172;-91
2023/08/18 00:44:45;;;;;;;2.88;2.53;;;;;;;22.24;76.99;95701.44;6274501;22;20235;-91
2023/08/18 00:47:16;;;;;;;4.05;2.63;;;;;;;22.22;77.51;95717.41;6273750;22;20225;-91
2023/08/18 00:49:49;;;;;;;3.35;2.70;;;;;;;22.29;77.06;95704.91;6274454;22;20164;-91
2023/08/18 00:52:18;;;;;;;5.43;4.10;;;;;;;22.30;77.07;95701.25;6274443;22;20243;-91
2023/08/18 00:54:45;;;;;;;4.82;3.97;;;;;;;22.40;77.89;95711.81;6273783;22;20195;-91
2023/08/18 00:57:14;;;;;;;4.70;3.35;;;;;;;22.47;76.87;95698.53;6274309;22;20184;-91
2023/08/18 00:59:43;;;;;;;5.80;4.40;;;;;;;22.44;76.66;95679.84;6274302;22;20230;-91
2023/08/18 01:02:16;;;;;;;5.18;3.30;;;;;;;22.48;75.89;95678.31;6273872;22;20172;-93
2023/08/18 01:04:43;;;;;;;3.58;3.28;;;;;;;22.54;75.90;95672.06;6274083;22;20188;-91
2023/08/18 01:07:17;;;;;;;3.65;3.30;;;;;;;22.60;75.94;95671.06;6274322;22;20172;-92
2023/08/18 01:09:58;;;;;;;3.70;3.40;;;;;;;22.57;75.78;95659.22;6275951;22;20155;-90
2023/08/18 01:12:36;;;;;;;4.57;3.47;;;;;;;22.58;74.13;95620.66;6274717;22;20152;-90
2023/08/18 01:15:15;;;;;;;8.27;7.22;;;;;;;22.60;75.43;95634.31;6273666;22;20658;-91
2023/08/18 01:17:51;;;;;;;5.80;5.13;;;;;;;22.61;75.36;95646.41;6273700;22;20248;-91
2023/08/18 01:20:27;;;;;;;4.35;3.22;;;;;;;22.60;75.79;95632.50;6274241;22;20176;-90
2023/08/18 01:22:59;;;;;;;7.13;4.40;;;;;;;22.56;76.51;95651.59;6273845;22;20175;-93
2023/08/18 01:25:31;;;;;;;3.50;3.20;;;;;;;22.50;74.91;95614.06;6273861;22;20271;-91
2023/08/18 01:28:02;;;;;;;5.47;4.65;;;;;;;22.38;75.88;95629.94;6273927;22;20149;-91
2023/08/18 01:30:37;;;;;;;8.15;6.20;;;;;;;22.28;76.41;95642.19;6274578;22;20489;-91
2023/08/18 01:33:12;;;;;;;4.97;3.95;;;;;;;22.23;76.61;95642.13;6274073;22;20762;-92
2023/08/18 01:35:46;;;;;;;4.95;4.05;;;;;;;22.36;76.71;95641.72;6274332;22;20188;-91
2023/08/18 01:38:17;;;;;;;5.75;5.05;;;;;;;22.36;76.59;95650.38;6274012;22;20177;-91
2023/08/18 01:40:47;;;;;;;4.55;3.80;;;;;;;22.29;77.08;95649.81;6275696;22;20179;-91
2023/08/18 01:43:14;;;;;;;4.57;4.18;;;;;;;22.36;77.19;95639.09;6276094;22;20164;-91
2023/08/18 01:45:41;;;;;;;3.85;3.45;;;;;;;22.31;77.05;95629.38;6275531;22;20230;-91
2023/08/18 01:48:17;;;;;;;4.13;3.38;;;;;;;22.32;77.33;95635.41;6275808;22;20488;-90
2023/08/18 01:50:45;;;;;;;3.55;2.95;;;;;;;22.32;76.55;95607.31;6277065;22;20155;-91
2023/08/18 01:53:14;;;;;;;3.10;2.80;;;;;;;22.21;76.51;95605.66;6276767;22;20179;-91
2023/08/18 01:56:04;;;;;;;4.18;3.38;;;;;;;22.19;76.68;95606.94;6276432;22;20245;-91
2023/08/18 01:58:32;;;;;;;7.10;3.63;;;;;;;22.16;77.32;95620.53;6277217;22;20628;-91
2023/08/18 02:01:00;;;;;;;4.25;3.83;;;;;;;22.17;77.47;95627.38;6275871;22;20172;-91
2023/08/18 02:03:35;;;;;;;3.38;3.08;;;;;;;22.09;76.58;95609.47;6275663;22;20176;-91
2023/08/18 02:06:03;;;;;;;5.10;3.83;;;;;;;22.12;76.96;95616.84;6275983;22;20215;-92
2023/08/18 02:08:46;;;;;;;4.22;3.30;;;;;;;22.11;77.67;95617.91;6250522;22;20243;-91
2023/08/18 02:11:21;;;;;;;4.45;3.97;;;;;;;22.10;77.87;95613.69;6275725;22;20168;-91
2023/08/18 02:13:48;;;;;;;7.93;5.30;;;;;;;22.12;77.69;95609.00;6276811;22;20172;-91
2023/08/18 02:16:16;;;;;;;3.53;3.22;;;;;;;22.04;78.06;95613.63;6276760;22;20175;-91
2023/08/18 02:18:54;;;;;;;3.95;3.20;;;;;;;21.97;77.29;95596.47;6277459;22;20172;-90
2023/08/18 02:21:31;;;;;;;4.63;2.90;;;;;;;21.95;77.04;95596.72;6277205;22;20245;-90
2023/08/18 02:24:06;;;;;;;3.42;2.92;;;;;;;22.04;77.36;95603.13;6276625;22;20172;-91
2023/08/18 02:26:43;;;;;;;3.35;2.78;;;;;;;22.07;76.33;95594.00;6275802;22;20192;-91
2023/08/18 02:29:11;;;;;;;3.65;3.25;;;;;;;22.08;76.85;95595.56;6277243;22;20578;-91
2023/08/18 02:31:40;;;;;;;10.05;8.70;;;;;;;21.97;78.53;95623.47;6276904;22;20230;-90
2023/08/18 02:34:24;;;;;;;4.35;3.45;;;;;;;21.98;78.02;95621.66;6276431;22;20188;-91
2023/08/18 02:37:01;;;;;;;4.95;3.97;;;;;;;22.05;76.99;95599.47;6276908;22;20152;-91
2023/08/18 02:39:31;;;;;;;5.75;3.80;;;;;;;22.09;76.49;95599.78;6276893;22;20195;-91
2023/08/18 02:42:29;;;;;;;4.40;4.00;;;;;;;22.18;76.99;95600.09;6276949;22;20172;-91
2023/08/18 02:45:15;;;;;;;4.20;3.75;;;;;;;22.19;78.13;95625.31;6276363;22;20189;-91
2023/08/18 02:47:57;;;;;;;;;;;;;;;;;;;;;
2023/08/18 02:50:28;;;;;;;3.55;3.05;;;;;;;22.18;77.58;95619.25;6277098;22;20168;-91
2023/08/18 02:53:00;;;;;;;4.80;4.40;;;;;;;22.18;76.28;95603.53;6276624;22;20207;-91
2023/08/18 02:55:34;;;;;;;5.28;4.55;;;;;;;22.09;76.74;95605.03;6249342;22;20226;-91
2023/08/18 02:58:02;;;;;;;4.97;4.10;;;;;;;22.01;76.15;95602.84;6276108;22;20172;-90
2023/08/18 03:00:35;;;;;;;7.50;5.28;;;;;;;22.03;75.65;95591.06;6276531;22;20179;-90
2023/08/18 03:05:49;;;;;;;8.57;5.88;;;;;;;21.90;76.73;95609.00;6272694;22;20234;-90
2023/08/18 03:08:18;;;;;;;5.10;4.38;;;;;;;21.94;76.87;95616.09;6275485;22;20175;-90
2023/08/18 03:10:45;;;;;;;9.30;6.35;;;;;;;21.97;77.00;95609.56;6275546;22;20553;-90
2023/08/18 03:13:23;;;;;;;6.63;4.40;;;;;;;21.99;77.76;95642.38;6275550;22;20237;-90
2023/08/18 03:15:50;;;;;;;6.55;3.50;;;;;;;22.00;77.55;95638.75;6275238;22;20267;-89
2023/08/18 03:18:17;;;;;;;4.10;2.83;;;;;;;22.02;76.51;95614.91;6275146;22;20176;-89
2023/08/18 03:20:46;;;;;;;3.42;2.95;;;;;;;21.98;76.52;95621.66;6275229;22;20175;-91
2023/08/18 03:23:22;;;;;;;3.40;2.72;;;;;;;21.89;76.61;95621.31;6275507;22;20270;-89
2023/08/18 03:25:49;;;;;;;4.63;4.22;;;;;;;21.79;77.04;95633.50;6275954;22;20504;-90
2023/08/18 03:28:17;;;;;;;5.50;4.72;;;;;;;21.75;77.63;95645.50;6275779;22;20167;-90
2023/08/18 03:30:47;;;;;;;3.95;3.42;;;;;;;21.75;78.05;95651.53;6275558;22;20212;-90
2023/08/18 03:33:14;;;;;;;6.53;4.30;;;;;;;21.73;77.35;95645.00;6275259;22;20168;-92
2023/08/18 03:35:43;;;;;;;5.32;3.67;;;;;;;21.68;77.63;95640.47;6275845;22;20199;-89
2023/08/18 03:38:11;;;;;;;5.97;3.88;;;;;;;21.55;78.83;95664.44;6275646;22;20214;-90
2023/08/18 03:40:38;;;;;;;6.72;4.35;;;;;;;21.43;79.47;95677.63;6275221;22;20200;-89
2023/08/18 03:43:04;;;;;;;9.25;7.40;;;;;;;21.42;79.87;95680.47;6274662;22;20172;-89
2023/08/18 03:45:33;;;;;;;5.68;3.85;;;;;;;21.42;79.50;95675.25;6272180;22;20715;-89
2023/08/18 03:48:02;;;;;;;3.10;2.70;;;;;;;21.41;79.81;95689.38;6271631;22;20263;-88
2023/08/18 03:50:35;;;;;;;5.80;3.30;;;;;;;21.41;79.82;95686.75;6272298;22;20168;-89
2023/08/18 03:53:02;;;;;;;6.20;3.10;;;;;;;21.44;79.92;95686.28;6271788;22;20195;-88
2023/08/18 03:55:31;;;;;;;5.32;3.90;;;;;;;21.51;79.60;95689.53;6270963;22;20200;-89
2023/08/18 03:57:58;;;;;;;6.95;5.30;;;;;;;21.55;79.42;95683.53;6272429;22;20179;-88
2023/08/18 04:00:24;;;;;;;6.22;4.35;;;;;;;21.48;80.25;95697.88;6272456;22;20176;-88
2023/08/18 04:03:07;;;;;;;9.38;5.90;;;;;;;21.26;81.88;95732.66;6271008;22;20172;-88
2023/08/18 04:05:33;;;;;;;8.80;5.07;;;;;;;21.18;81.92;95747.94;6270117;22;20614;-88
2023/08/18 04:08:00;;;;;;;5.35;4.85;;;;;;;21.17;82.86;95770.72;6271674;22;20183;-88
2023/08/18 04:10:33;;;;;;;4.20;3.80;;;;;;;21.08;84.31;95797.53;6271504;22;20184;-88
2023/08/18 04:13:02;;;;;;;7.05;3.67;;;;;;;21.02;85.04;95818.41;6272104;22;20152;-88
2023/08/18 04:15:29;;;;;;;5.13;3.55;;;;;;;20.93;86.40;95832.91;6270745;22;20274;-87
2023/08/18 04:17:55;;;;;;;5.53;3.50;;;;;;;21.06;85.06;95820.56;6271501;22;20196;-88
2023/08/18 04:20:23;;;;;;;8.32;6.70;;;;;;;21.14;83.80;95794.00;6270825;22;20195;-88
2023/08/18 04:23:05;;;;;;;6.72;4.30;;;;;;;21.21;83.21;95771.06;6270902;22;20507;-88
2023/08/18 04:25:34;;;;;;;5.65;3.95;;;;;;;21.10;83.04;95767.47;6270229;22;20223;-89
2023/08/18 04:28:03;;;;;;;4.45;3.80;;;;;;;20.87;84.83;95797.19;6270992;22;20175;-88
2023/08/18 04:30:30;;;;;;;4.85;4.15;;;;;;;20.95;84.86;95804.69;6270689;22;20176;-88
2023/08/18 04:32:56;;;;;;;3.75;3.45;;;;;;;21.12;84.21;95790.81;6270848;22;20176;-89
2023/08/18 04:35:29;;;;;;;4.20;2.90;;;;;;;21.07;86.00;95816.91;6269619;22;20563;-91
2023/08/18 04:37:56;;;;;;;3.90;3.22;;;;;;;21.15;84.17;95791.13;6270100;22;20287;-88
2023/08/18 04:40:23;;;;;;;6.93;3.30;;;;;;;21.32;84.09;95796.41;6270438;22;20498;-88
2023/08/18 04:42:50;;;;;;;3.40;3.10;;;;;;;21.28;85.15;95818.88;6269222;22;20183;-90
2023/08/18 04:45:16;;;;;;;5.40;4.28;;;;;;;21.30;84.70;95819.41;6269469;22;20195;-88
2023/08/18 04:47:43;;;;;;;5.53;3.42;;;;;;;21.25;85.55;95835.03;6270108;22;20241;-89
2023/08/18 04:50:10;;;;;;;3.72;3.40;;;;;;;21.19;85.29;95828.88;6269853;22;20255;-88
2023/08/18 04:52:37;;;;;;;3.58;3.28;;;;;;;21.31;84.68;95821.00;6270363;22;20183;-88
2023/08/18 04:55:04;;;;;;;3.70;3.40;;;;;;;21.26;85.56;95836.63;6271277;22;20590;-89
2023/08/18 04:57:40;;;;;;;3.70;2.97;;;;;;;21.32;84.60;95812.91;6269419;22;20192;-91
2023/08/18 05:00:13;;;;;;;3.95;3.05;;;;;;;21.44;83.96;95810.19;6270263;22;20163;-93
2023/08/18 05:02:39;;;;;;;5.65;3.42;;;;;;;21.47;84.01;95795.84;6269793;22;20179;-91
2023/08/18 05:05:06;;;;;;;4.88;3.22;;;;;;;21.35;85.84;95832.59;6270416;22;20199;-91
2023/08/18 05:07:33;;;;;;;3.28;2.88;;;;;;;21.36;84.62;95826.31;6270744;22;20814;-91
2023/08/18 05:10:02;;;;;;;3.35;3.00;;;;;;;21.37;83.98;95812.19;6270102;22;20229;-92
2023/08/18 05:12:29;;;;;;;3.58;3.28;;;;;;;21.44;84.08;95817.28;6271426;22;20226;-93
2023/08/18 05:14:55;;;;;;;4.10;3.15;;;;;;;21.35;85.43;95840.47;6271195;22;20192;-91
2023/08/18 05:17:22;;;;;;;3.80;3.50;;;;;;;21.24;86.88;95863.06;6272972;22;20600;-92
2023/08/18 05:19:49;;;;;;;4.05;2.95;;;;;;;21.16;87.91;95892.25;6273201;22;20558;-92
2023/08/18 05:22:15;;;;;;;3.40;3.10;;;;;;;21.20;88.56;95901.22;6274690;22;20172;-92
2023/08/18 05:24:47;;;;;;;6.55;3.67;;;;;;;21.31;87.45;95895.16;6275822;22;20202;-91
2023/08/18 05:27:24;;;;;;;4.65;3.45;;;;;;;21.34;87.85;95883.41;6276502;22;20180;-93
2023/08/18 05:29:51;;;;;;;6.65;3.95;;;;;;;21.45;86.95;95871.25;6276265;22;20149;-93
2023/08/18 05:32:25;;;;;;;4.47;3.92;;;;;;;21.48;85.98;95853.25;6274311;22;20176;-91
2023/08/18 05:35:06;;;;;;;4.15;3.75;;;;;;;21.61;84.94;95834.56;6274715;22;20573;-92
2023/08/18 05:37:33;;;;;;;4.03;3.70;;;;;;;21.73;84.38;95825.84;6274792;22;20171;-92
2023/08/18 05:40:00;;;;;;;7.03;3.85;;;;;;;21.95;83.93;95822.19;6275685;22;20529;-93
2023/08/18 05:42:29;;;;;;;4.95;3.60;;;;;;;22.09;83.24;95816.66;6275883;22;20495;-91
2023/08/18 05:44:55;;;;;;;4.60;3.60;;;;;;;22.20;82.75;95798.16;6272032;22;20558;-92
2023/08/18 05:47:30;;;;;;;5.18;3.78;;;;;;;22.20;81.14;95768.53;6272594;22;20531;-92
2023/08/18 05:49:58;;;;;;;4.32;3.45;;;;;;;22.17;81.51;95775.06;6272353;22;20560;-92
2023/08/18 05:52:24;;;;;;;4.80;3.60;;;;;;;22.18;81.73;95779.25;6272954;22;20203;-93
2023/08/18 05:54:55;;;;;;;6.22;3.50;;;;;;;22.24;81.29;95777.50;6274109;22;20523;-92
2023/08/18 05:57:26;;;;;;;5.50;3.60;;;;;;;22.29;80.04;95744.25;6276411;22;20176;-93
2023/08/18 06:00:01;;;;;;;3.95;3.22;;;;;;;22.23;81.01;95775.91;6272891;22;20203;-91
2023/08/18 06:02:28;;;;;;;3.42;3.13;;;;;;;22.39;81.77;95788.16;6273802;22;20221;-93
2023/08/18 06:04:54;;;;;;;5.30;3.60;;;;;;;22.47;81.87;95792.19;6273890;22;20250;-91
2023/08/18 06:07:40;;;;;;;4.05;3.40;;;;;;;22.50;80.71;95763.63;6278567;22;20611;-92
2023/08/18 06:10:08;;;;;;;4.30;3.30;;;;;;;22.57;79.56;95745.03;6274477;22;20156;-93
2023/08/18 06:12:40;;;;;;;4.07;3.25;;;;;;;22.64;78.38;95727.28;6273241;22;20172;-91
2023/08/18 06:15:16;;;;;;;3.17;2.88;;;;;;;22.79;77.68;95708.25;6274182;22;20201;-92
2023/08/18 06:20:40;;;;;;;3.40;3.10;;;;;;;22.80;76.66;95694.91;6212872;22;20172;-91
2023/08/18 06:23:42;;;;;;;3.78;3.40;;;;;;;22.74;79.09;95733.41;6276325;22;20172;-91
2023/08/18 06:26:41;;;;;;;3.83;3.40;;;;;;;22.71;79.39;95756.72;6170796;22;20266;-93
2023/08/18 06:29:09;;;;;;;4.63;3.50;;;;;;;22.69;79.61;95762.25;6242213;22;20176;-93
2023/08/18 06:31:52;;;;;;;3.13;2.80;;;;;;;22.75;79.27;95748.09;6275080;22;20247;-92
2023/08/18 06:34:23;;;;;;;5.47;3.00;;;;;;;22.82;77.67;95720.91;6275056;22;20188;-91
2023/08/18 06:40:16;;;;;;;3.97;2.13;;;;;;;23.04;70.23;95529.88;6266220;22;20237;-91
2023/08/18 06:42:42;;;;;;;2.20;2.00;;;;;;;23.00;68.06;95471.03;6272397;22;20259;-92
2023/08/18 06:45:34;;;;;;;3.22;1.63;;;;;;;22.93;66.68;95433.69;6272518;22;20215;-91
2023/08/18 06:48:29;;;;;;;3.55;1.80;;;;;;;22.86;65.86;95399.81;6275732;22;20188;-91
2023/08/18 06:57:11;;;;;;;2.05;1.80;;;;;;;23.31;66.42;95429.88;6261321;22;20207;-91
2023/08/18 07:06:08;;;;;;;2.30;1.95;;;;;;;23.58;64.68;95388.41;6226730;22;20208;-92
2023/08/18 07:08:38;;;;;;;2.10;1.90;;;;;;;23.68;63.19;95348.97;6245399;23;20201;-89
2023/08/18 07:11:19;;;;;;;2.22;1.98;;;;;;;23.68;63.63;95353.44;6245182;23;20491;-90
2023/08/18 07:25:34;;;;;;;2.90;2.40;;;;;;;24.08;62.32;95327.06;6279904;22;20202;-90
2023/08/18 07:28:29;;;;;;;4.03;2.40;;;;;;;24.22;63.35;95363.38;6271647;22;20179;-90
2023/08/18 07:31:32;;;;;;;2.53;2.33;;;;;;;24.24;62.74;95341.03;6150548;23;20178;-90
2023/08/18 07:59:56;;;;;;;;;;;;;;;;;;;;;
2023/08/18 08:13:15;;;;;;;3.45;2.22;;;;;;;25.23;58.81;95194.25;6183932;23;20196;-90
2023/08/18 08:15:54;;;;;;;3.03;2.17;;;;;;;25.11;57.63;95163.03;6190148;22;20225;-90
2023/08/18 08:22:17;;;;;;;3.42;2.08;;;;;;;25.34;57.16;95139.63;6256368;22;20168;-90
2023/08/18 08:25:21;;;;;;;4.18;2.08;;;;;;;25.38;57.17;95130.88;6274695;22;20276;-89
2023/08/18 08:27:54;;;;;;;4.75;2.10;;;;;;;25.53;56.92;95137.03;6272795;22;20211;-91
2023/08/18 08:30:28;;;;;;;3.85;2.35;;;;;;;25.64;56.63;95112.94;6275162;22;20483;-91
2023/08/18 08:32:55;;;;;;;2.47;2.03;;;;;;;25.83;56.48;95114.81;6276028;22;20168;-90
2023/08/18 08:35:44;;;;;;;2.92;2.05;;;;;;;26.14;55.88;95105.41;6274464;22;20208;-89
2023/08/18 08:38:16;;;;;;;1.98;1.88;;;;;;;26.39;53.83;94998.66;6278433;22;20191;-90
2023/08/18 08:50:00;;;;;;;2.75;2.00;;;;;;;27.33;53.04;94961.22;6243081;23;20181;-91
2023/08/18 08:52:31;;;;;;;2.90;1.90;;;;;;;27.51;52.36;94929.38;6244281;23;20243;-91
2023/08/18 08:55:24;;;;;;;2.60;2.40;;;;;;;27.70;50.90;94843.81;6256711;22;20192;-91
2023/08/18 08:58:01;;;;;;;6.72;2.70;;;;;;;27.82;50.84;94868.63;6270494;22;20552;-90
2023/08/18 09:00:41;;;;;;;3.33;2.50;;;;;;;28.09;49.28;94800.72;6274647;22;20149;-92
2023/08/18 09:09:15;;;;;;;2.42;2.22;;;;;;;28.60;48.93;94783.44;6251505;22;20199;-90
2023/08/18 09:12:07;;;;;;;2.28;2.08;;;;;;;28.79;48.06;94741.53;6275030;22;20167;-90
2023/08/18 09:14:44;;;;;;;4.32;2.22;;;;;;;28.72;48.10;94736.69;6272863;22;20188;-91
2023/08/18 09:17:45;;;;;;;3.42;2.10;;;;;;;28.86;47.31;94689.63;6272252;22;20175;-90
2023/08/18 09:20:21;;;;;;;2.78;1.98;;;;;;;28.78;46.74;94652.53;6266318;22;20210;-90
2023/08/18 09:23:06;;;;;;;2.58;2.00;;;;;;;28.83;46.73;94639.16;6272863;22;20251;-90
2023/08/18 09:25:41;;;;;;;3.17;2.33;;;;;;;28.64;47.44;94665.16;6274341;22;20725;-90
2023/08/18 09:28:46;;;;;;;6.82;2.50;;;;;;;28.86;46.22;94633.22;6273636;22;20195;-90
2023/08/18 09:32:05;;;;;;;2.58;1.95;;;;;;;28.77;47.10;94659.69;6247037;22;20196;-90
2023/08/18 09:40:42;;;;;;;2.88;2.10;;;;;;;29.01;47.18;94704.28;6239396;23;20223;-90
2023/08/18 09:43:13;;;;;;;2.30;2.05;;;;;;;29.15;47.90;94706.75;6242020;23;20177;-90
2023/08/18 09:45:50;;;;;;;3.00;2.10;;;;;;;29.42;46.86;94702.97;6264723;22;20788;-91
2023/08/18 10:12:19;;;;;;;3.22;2.10;;;;;;;30.58;43.96;94529.88;5742808;24;20246;-89
2023/08/18 10:14:51;;;;;;;2.40;2.15;;;;;;;30.76;45.30;94611.75;5819054;24;20271;-90
2023/08/18 10:17:24;;;;;;;2.40;2.20;;;;;;;31.02;44.47;94560.94;5959203;23;20260;-90
2023/08/18 10:20:00;;;;;;;2.15;2.03;;;;;;;31.13;43.51;94516.91;6148290;22;20221;-89
2023/08/18 10:22:31;;;;;;;2.17;2.08;;;;;;;31.10;42.72;94469.66;6270654;22;20172;-89
2023/08/18 10:25:04;;;;;;;2.97;2.03;;;;;;;31.12;43.62;94503.94;6271273;22;20188;-90
2023/08/18 10:27:40;;;;;;;2.30;2.10;;;;;;;30.89;43.65;94493.69;6273977;22;20180;-92
2023/08/18 10:30:32;;;;;;;2.88;2.00;;;;;;;30.91;42.83;94477.41;6271370;22;20627;-90
2023/08/18 10:33:06;;;;;;;2.10;2.00;;;;;;;30.69;41.67;94398.09;6273361;22;20156;-90
2023/08/18 10:35:41;;;;;;;1.90;1.80;;;;;;;30.56;40.64;94338.88;6271672;22;20840;-93
2023/08/18 10:38:10;;;;;;;3.13;1.98;;;;;;;30.49;41.51;94379.25;6272532;22;20611;-89
2023/08/18 10:40:38;;;;;;;2.15;1.88;;;;;;;30.69;42.00;94406.84;6273781;22;20192;-89
2023/08/18 10:43:16;;;;;;;2.42;2.22;;;;;;;30.85;42.70;94447.59;6271455;22;20182;-88
2023/08/18 10:45:50;;;;;;;2.40;2.20;;;;;;;31.03;42.28;94440.19;6272092;22;20218;-91
2023/08/18 10:48:17;;;;;;;1.73;1.60;;;;;;;30.94;41.66;94389.03;6273683;22;20192;-91
2023/08/18 10:50:45;;;;;;;2.00;1.90;;;;;;;30.95;39.65;94262.97;6273570;22;20512;-92
2023/08/18 10:53:17;;;;;;;2.63;2.28;;;;;;;30.66;39.77;94279.19;6273575;22;20510;-89
2023/08/18 10:56:03;;;;;;;;;;;;;;;;;;;;;
2023/08/18 11:01:44;;;;;;;2.60;2.00;;;;;;;30.92;40.96;94354.03;6268178;22;20259;-89
2023/08/18 11:04:48;;;;;;;2.30;2.10;;;;;;;30.95;41.03;94348.03;6275792;22;20162;-90
2023/08/18 11:07:38;;;;;;;2.15;1.92;;;;;;;31.08;40.52;94351.44;6275543;22;20204;-89
2023/08/18 11:13:36;;;;;;;1.90;1.80;;;;;;;31.10;39.29;94230.31;6179878;23;20309;-90
2023/08/18 11:16:30;;;;;;;1.80;1.70;;;;;;;31.09;38.79;94210.16;6216545;22;20234;-89
2023/08/18 11:19:10;;;;;;;1.70;1.60;;;;;;;31.16;38.57;94191.78;6273853;22;20639;-93
2023/08/18 11:21:44;;;;;;;2.13;1.92;;;;;;;31.09;37.97;94156.22;6275923;22;20171;-89
2023/08/18 11:24:36;;;;;;;;;;;;;;;;;;;;;
2023/08/18 11:27:14;;;;;;;2.70;2.30;;;;;;;30.98;38.45;94211.78;6262821;22;20651;-90
2023/08/18 11:30:08;;;;;;;2.60;2.40;;;;;;;30.95;38.12;94182.44;6271259;22;20279;-89
2023/08/18 11:32:37;;;;;;;2.05;1.90;;;;;;;30.96;37.31;94128.91;6272450;22;20176;-92
2023/08/18 11:35:18;;;;;;;2.72;1.80;;;;;;;30.96;37.78;94168.03;6272535;22;20192;-90
2023/08/18 11:37:52;;;;;;;2.63;1.75;;;;;;;31.01;38.47;94175.72;6273142;22;20172;-90
2023/08/18 11:40:36;;;;;;;2.38;2.17;;;;;;;30.99;38.86;94239.88;6273727;22;20155;-90
2023/08/18 11:43:13;;;;;;;2.60;2.40;;;;;;;31.09;38.20;94210.16;6272843;22;20244;-91
2023/08/18 11:45:48;;;;;;;3.00;1.90;;;;;;;31.28;37.51;94142.28;6270073;22;20192;-92
2023/08/18 11:48:22;;;;;;;2.30;2.10;;;;;;;31.16;37.66;94173.16;6271084;22;20226;-90
2023/08/18 11:50:56;;;;;;;2.45;2.25;;;;;;;31.20;38.09;94200.59;6270581;22;20157;-92
2023/08/18 11:53:30;;;;;;;2.25;2.10;;;;;;;31.36;38.52;94213.94;6268720;22;20501;-91
2023/08/18 11:56:02;;;;;;;2.20;2.00;;;;;;;31.47;37.04;94150.34;6269658;22;20879;-89
2023/08/18 11:58:37;;;;;;;3.10;1.92;;;;;;;31.56;37.28;94148.28;6270264;22;20244;-89
2023/08/18 12:04:09;;;;;;;2.60;2.00;;;;;;;31.69;39.29;94288.19;6268252;22;20855;-93
2023/08/18 12:06:42;;;;;;;2.40;2.20;;;;;;;31.70;39.03;94260.44;6268386;22;20171;-89
2023/08/18 12:09:23;;;;;;;2.50;2.30;;;;;;;31.73;39.15;94275.75;6271784;22;20597;-91
2023/08/18 12:12:20;;;;;;;2.50;2.22;;;;;;;31.88;38.11;94221.72;6270047;22;20171;-89
2023/08/18 12:14:52;;;;;;;2.60;2.40;;;;;;;32.04;38.97;94248.34;6269010;22;20188;-91
2023/08/18 12:17:18;;;;;;;2.90;2.05;;;;;;;32.26;37.14;94172.38;6269423;22;20168;-91
2023/08/18 12:20:23;;;;;;;2.03;1.80;;;;;;;32.47;36.98;94158.75;6271861;22;20174;-90
2023/08/18 12:23:03;;;;;;;1.83;1.73;;;;;;;32.22;36.96;94135.00;6270137;22;20160;-94
2023/08/18 12:25:52;;;;;;;2.33;2.13;;;;;;;32.01;37.45;94179.00;6268488;22;20200;-93
2023/08/18 12:28:22;;;;;;;2.20;2.00;;;;;;;32.06;38.60;94216.03;6268529;22;20586;-91
2023/08/18 12:30:53;;;;;;;2.50;1.90;;;;;;;32.09;38.63;94237.44;6272883;22;20172;-92
2023/08/18 12:33:28;;;;;;;1.95;1.83;;;;;;;32.26;38.09;94217.66;6272394;22;20171;-89
2023/08/18 12:35:55;;;;;;;2.17;1.80;;;;;;;32.42;37.57;94165.13;6271049;22;20303;-91
2023/08/18 12:38:27;;;;;;;1.90;1.80;;;;;;;32.42;37.49;94165.13;6272366;22;20175;-90
2023/08/18 12:40:57;;;;;;;2.13;2.00;;;;;;;32.33;37.88;94190.44;6270558;22;20639;-92
2023/08/18 12:43:37;;;;;;;1.92;1.83;;;;;;;32.26;35.64;94055.94;6271813;22;20168;-89
2023/08/18 12:46:19;;;;;;;4.82;1.88;;;;;;;32.06;35.59;94054.38;6269156;22;20558;-91
2023/08/18 12:49:05;;;;;;;1.90;1.80;;;;;;;31.96;35.79;94038.94;6263911;22;20202;-90
2023/08/18 12:51:31;;;;;;;2.10;2.00;;;;;;;32.02;36.38;94100.66;6270541;22;20173;-89
2023/08/18 12:54:02;;;;;;;2.97;2.00;;;;;;;32.08;36.07;94072.66;6271517;22;20691;-90
2023/08/18 12:56:41;;;;;;;2.55;2.10;;;;;;;32.20;35.90;94052.00;6270604;22;20159;-90
2023/08/18 12:59:15;;;;;;;2.50;2.25;;;;;;;32.26;36.76;94117.22;6271838;22;20160;-89
2023/08/18 13:01:45;;;;;;;2.80;2.60;;;;;;;32.33;37.02;94145.88;6266792;22;20712;-89
2023/08/18 13:04:11;;;;;;;2.20;2.05;;;;;;;32.39;37.26;94192.44;6268543;22;20192;-89
2023/08/18 13:06:38;;;;;;;2.40;2.20;;;;;;;32.36;37.43;94179.81;6268289;22;20572;-90
2023/08/18 13:09:06;;;;;;;2.33;2.13;;;;;;;32.50;36.98;94161.47;6271582;22;20521;-91
2023/08/18 13:11:40;;;;;;;2.50;2.17;;;;;;;32.48;37.04;94157.63;6271930;22;20182;-89
2023/08/18 13:14:06;;;;;;;2.92;2.70;;;;;;;32.65;37.96;94218.50;6267214;22;20184;-90
2023/08/18 13:16:41;;;;;;;3.35;2.78;;;;;;;32.91;37.42;94199.25;6268750;22;20644;-91
2023/08/18 13:19:12;;;;;;;2.17;2.00;;;;;;;32.97;37.03;94151.72;6270456;22;20152;-90
2023/08/18 13:21:39;;;;;;;4.10;2.05;;;;;;;32.85;36.37;94126.78;6270490;22;20188;-89
2023/08/18 13:38:53;;;;;;;3.78;2.00;;;;;;;32.61;36.97;94151.03;6260609;22;20206;-90
2023/08/18 13:48:32;;;;;;;6.75;3.03;;;;;;;32.79;37.59;94178.06;6201309;22;20207;-91
2023/08/18 13:54:40;;;;;;;10.07;3.88;;;;;;;32.89;36.96;94145.50;6266693;22;20298;-91
2023/08/18 13:58:17;;;;;;;2.97;2.60;;;;;;;32.79;37.86;94186.06;6276568;22;20246;-91
2023/08/18 14:01:12;;;;;;;;;;;;;;;;;;;;;
2023/08/18 14:07:39;;;;;;;2.63;2.00;;;;;;;32.82;37.16;94137.38;6216860;22;20173;-91
2023/08/18 14:14:08;;;;;;;2.30;2.10;;;;;;;32.60;38.20;94186.78;6182480;22;20168;-90
2023/08/18 14:20:01;;;;;;;2.25;2.05;;;;;;;32.48;37.95;94203.69;6176429;23;20178;-92
2023/08/18 14:39:17;;;;;;;2.17;1.98;;;;;;;32.41;38.75;94238.19;6230901;22;20195;-91
2023/08/18 14:41:49;;;;;;;4.60;2.45;;;;;;;32.30;38.55;94226.53;6265294;22;20168;-90
2023/08/18 14:44:34;;;;;;;2.97;2.38;;;;;;;32.09;39.23;94239.31;6271038;22;20637;-92
2023/08/18 14:50:36;;;;;;;2.60;2.30;;;;;;;32.32;39.54;94266.91;5985510;23;20895;-91
2023/08/18 14:53:03;;;;;;;2.95;2.60;;;;;;;32.44;39.31;94266.03;6135796;22;20192;-91
2023/08/18 14:55:31;;;;;;;2.70;2.50;;;;;;;32.44;38.77;94223.38;6271450;22;20203;-92
2023/08/18 14:58:00;;;;;;;2.70;2.30;;;;;;;32.49;39.02;94245.22;6271685;22;20176;-93
2023/08/18 15:00:28;;;;;;;3.38;2.13;;;;;;;32.46;38.66;94202.50;6271841;22;20180;-90
2023/08/18 15:03:21;;;;;;;3.47;2.25;;;;;;;32.35;38.52;94220.13;6269976;22;20176;-91
2023/08/18 15:06:03;;;;;;;2.80;2.60;;;;;;;32.44;38.58;94210.06;6176218;23;20204;-91
2023/08/18 15:12:05;;;;;;;2.53;2.22;;;;;;;32.42;38.77;94221.06;6175922;23;20253;-92
2023/08/18 15:14:32;;;;;;;2.22;2.08;;;;;;;32.32;38.93;94231.50;6270104;22;20192;-92
2023/08/18 15:20:24;;;;;;;3.03;2.53;;;;;;;32.32;38.80;94212.84;6268395;22;20168;-91
2023/08/18 15:22:54;;;;;;;3.10;2.75;;;;;;;32.17;38.29;94201.84;6211838;22;20187;-91
2023/08/18 15:25:20;;;;;;;4.07;2.80;;;;;;;32.20;39.01;94214.50;6270767;22;20291;-91
2023/08/18 15:28:09;;;;;;;2.65;2.42;;;;;;;32.26;38.65;94202.47;6270984;22;20248;-91